FLIGHT INFORMATION
Malaysia Airlines

MAS166

At Arrival Gate

RJAA
 KSEA
DATE: 2018-11-11
GATE:  -
GATE DEPARTURE: 03:04
TAKEOFF: 03:16
DATE: 2018-11-11
GATE:  -
LANDING: 12:10
GATE ARRIVAL: 12:18
FLIGHT DATA
Crew: JHAN JENSEN
Speed: 505 kts Altitude: 39000 ft
Stage Length: 4134 nm
Route: 
Block Time: 9.2 Flight Time: 8.9
Fuel Used: 201004 LB
TRACK DATA
50000 FT1000 KTAltitudeSpeed
AIRCRAFT INFORMATION
Aircraft Type: B744
Registration: 9M-MPI
SELCAL: CJDR MSN/LN: 27672 / 1091
Operator: MALAYSIA AIRLINES
Flights: 8 Block Time: 22.1 Flight Time: 19
Fuel Used: 1188561 LB
  • DEPARTURE INFORMATION
    Date: 2018-11-11
    Airport: RJAA
    Gate:  -
    Gate Departure: 03:04
    Takeoff: 03:16
    ARRIVAL INFORMATION
    Date: 2018-11-11
    Airport: KSEA
    Gate:  -
    Landing: 12:10
    Gate Arrival: 12:18
  • FLIGHT DATA
    Crew: JHAN JENSEN
    Speed: 505 kts Altitude: 39000 ft
    Stage Length: 2232 nm
    Route: 
    Block Time: 9.2 Flight Time: 8.9
    Fuel Used: 201004 LB
  • AIRCRAFT INFORMATION
    Aircraft Type: B744
    Registration: 9M-MPI
    SELCAL: CJDR MSN/LN: 27672 / 1091
    Operator: Malaysia Airlines
    Flights: 8 Block Time: 22.1 Flight Time: 19
    Fuel Used: 1188561 LB

DATALINK LOG | Newest first | Current as of: 2020-07-10 18:34:02
LABEL ID SEQUENCE CONTENT Dn/Up
QD183612:18 36.1▼ Dn
QC105512:10▼ Dn
GA1150ADVANCED GATE ASSIGNMENTS NOT YET AVAILABLE AT THIS AIRPORT▲ Up
GR5325KSEA 12:07▼ Dn
5U1134KSEA 110304Z 1103/1206 03006KT P6SM SKC TEMPO 1110/1113 3SM BR SCT003 FM111300 03006KT 2SM BR BKN003 TEMPO 1113/1117 1/2SM FG VV002 FM111800 03006KT P6SM SCT250▲ Up
5S5226KSEA▼ Dn
465042/OV XXX /TM 0950 /FL350 /TP B744 /TA -24 /RM NONE▼ Dn
5U3229KSEA 110304Z 1103/1206 03006KT P6SM SKC TEMPO 1110/1113 3SM BR SCT003 FM111300 03006KT 2SM BR BKN003 TEMPO 1113/1117 1/2SM FG VV002 FM111800 03006KT P6SM SCT250▲ Up
5S3814KSEA▼ Dn
2U3228RJAA 110300Z VRB02KT 9999 FEW020 BKN070 18/08 Q1020 BECMG 09005KT▲ Up
2U3228KSEA 110253Z 03006KT 10SM CLR 07/03 A3041 RMK AO2 SLP307 T00720033 53005▲ Up
2S3806RJAA KSEA▼ Dn
QB165103:16▼ Dn
QA043703:04 237.1▼ Dn


AIRCRAFT HISTORY
FLIGHT DATE FLIGHT NUMBER ORIGIN DESTINATION ROUTE BLOCK TIME FLIGHT TIME FUEL USED (LB) PILOT
2018-11-12MAS8686KSEA KSEA 1.61.535223Jhan Jensen
2018-11-11MAS166RJAA KSEA 9.28.9201004Jhan Jensen
2018-11-03MAS1WSSS RJAA IBIXU IBIVA DONDI DIVSA BTM DOGRA RUVIK HOSBA TOMAN VERIN LUSMO AKMON UDOSI ALDAS AGSAM ANOKI ARESI AKOTA AVMUP ALDIS ABVAR MEVIN MAGMA SADEK KAZIK AMMEK AZAMA TAMAK SHIBK YULIA NIKAI JERID MISAK BUNGU BAFFY CHEVY SYOYU ANGEL BINKS NR21C AF010 AF011 AF012 WEBBS NRE13 AF001 AF002 AF003 LAKES6.96.5219002Jhan Jensen
2018-10-27MAS172WMKK WSSS 0.90.721258Jhan Jensen
2018-09-29MAS101PHNL WMKK 11.811.4309607Jhan Jensen
2018-09-03MAS100KSLC PHNL 5.95.7131351Jhan Jensen
2018-08-26MAS1EGLL KSLC 9.49252998Jhan Jensen
2018-08-25MAS999EGBP EGLL 1.10.418117Jhan Jensen